Goff, Kansas
Current Conditions -  °F | °C
As of 7:53 PM on Sunday 23 Nov 2014 (Local Time) from KFNB Reporting Station
Overcast Overcast  
Wind Chill: 34°   Ceiling: 10000
Heat Index: 43°   Visibility: 10mi
Dew Point: 34°   Wind: 21mph
Humidity: 71%   Direction: 330°NNW
Pressure: 29.51"   Gusts: 30mph
Location:  39.66°N, 95.93°W
Report Text: KFNB 240153Z AUTO 33018G26KT 10SM BKN100 OVC110 06/01 A2951 RMK AO2 PK WND 32026/0153 SLP994 T00610011
Loading
Personal Weather Stations






























Interactive Weather Map New forecast layout! Learn more

10-Day Weather Forecast

Advertisements
Track Severe Weather on mobile